createdAt,value
2022-08-03T00:00:50.930Z,78.00
2022-08-03T00:01:50.960Z,77.82
2022-08-03T00:02:51.035Z,77.84
2022-08-03T00:03:50.982Z,77.86
2022-08-03T00:04:50.874Z,77.95
2022-08-03T00:06:04.857Z,78.03
2022-08-03T00:06:51.850Z,78.33
2022-08-03T00:07:50.905Z,78.42
2022-08-03T00:08:50.843Z,78.28
2022-08-03T00:09:50.920Z,78.05
2022-08-03T00:10:50.792Z,78.36
2022-08-03T00:11:50.829Z,78.36
2022-08-03T00:12:50.771Z,78.37
2022-08-03T00:13:50.842Z,78.26
2022-08-03T00:14:50.780Z,78.13
2022-08-03T00:15:50.762Z,78.12
2022-08-03T00:16:50.711Z,78.16
2022-08-03T00:17:52.022Z,78.01
2022-08-03T00:18:50.689Z,78.14
2022-08-03T00:19:50.792Z,78.47
2022-08-03T00:20:50.691Z,78.39
2022-08-03T00:21:50.702Z,78.58
2022-08-03T00:22:50.633Z,78.49
2022-08-03T00:23:51.355Z,78.51
2022-08-03T00:24:50.603Z,78.47
2022-08-03T00:25:50.622Z,78.51
2022-08-03T00:26:50.593Z,78.83
2022-08-03T00:27:50.829Z,78.95
2022-08-03T00:28:50.557Z,78.70
2022-08-03T00:29:59.632Z,78.74
2022-08-03T00:30:51.525Z,78.67
2022-08-03T00:31:52.574Z,78.72
2022-08-03T00:32:51.531Z,78.69
2022-08-03T00:33:58.151Z,78.55
2022-08-03T00:34:57.906Z,78.61
2022-08-03T00:35:51.457Z,78.56
2022-08-03T00:36:50.495Z,78.53
2022-08-03T00:37:50.455Z,78.56
2022-08-03T00:38:50.514Z,78.48
2022-08-03T00:39:50.413Z,78.41
2022-08-03T00:40:51.452Z,78.53
2022-08-03T00:41:50.374Z,78.64
2022-08-03T00:42:50.444Z,78.43
2022-08-03T00:43:50.386Z,78.58
2022-08-03T00:44:50.463Z,78.54
2022-08-03T00:45:50.333Z,78.48
2022-08-03T00:46:50.367Z,78.42
2022-08-03T00:47:50.308Z,78.39
2022-08-03T00:48:50.400Z,78.42
2022-08-03T00:49:50.466Z,78.47
2022-08-03T00:50:50.319Z,78.44
2022-08-03T00:51:50.245Z,78.35
2022-08-03T00:52:50.307Z,78.45
2022-08-03T00:53:50.234Z,78.47
2022-08-03T00:54:50.324Z,78.53
2022-08-03T00:55:50.227Z,78.52
2022-08-03T00:56:59.902Z,78.54
2022-08-03T00:57:51.176Z,78.44
2022-08-03T00:58:50.252Z,78.79
2022-08-03T00:59:50.148Z,78.86
2022-08-03T01:00:50.279Z,78.84
2022-08-03T01:01:50.169Z,78.76
2022-08-03T01:02:50.176Z,78.88
2022-08-03T01:03:50.094Z,78.90
2022-08-03T01:04:50.187Z,78.90
2022-08-03T01:05:50.068Z,78.89
2022-08-03T01:06:50.160Z,79.04
2022-08-03T01:07:50.039Z,78.94
2022-08-03T01:08:50.117Z,78.81
2022-08-03T01:09:50.017Z,79.00
2022-08-03T01:10:50.030Z,79.03
2022-08-03T01:12:00.521Z,79.16
2022-08-03T01:12:51.007Z,79.24
2022-08-03T01:14:01.080Z,79.43
2022-08-03T01:14:50.987Z,79.56
2022-08-03T01:15:49.934Z,79.54
2022-08-03T01:16:49.976Z,79.78
2022-08-03T01:17:49.918Z,79.81
2022-08-03T01:18:49.956Z,79.90
2022-08-03T01:19:49.893Z,79.91
2022-08-03T01:20:49.920Z,79.98
2022-08-03T01:21:49.850Z,80.04
2022-08-03T01:22:49.921Z,79.88
2022-08-03T01:23:49.830Z,79.98
2022-08-03T01:24:49.879Z,80.02
2022-08-03T01:25:54.363Z,80.02
2022-08-03T01:26:49.788Z,80.04
2022-08-03T01:27:49.848Z,79.88
2022-08-03T01:28:49.760Z,80.04
2022-08-03T01:29:49.859Z,80.07
2022-08-03T01:30:49.751Z,80.00
2022-08-03T01:32:58.120Z,79.92
2022-08-03T01:32:59.469Z,79.87
2022-08-03T01:33:50.700Z,79.71
2022-08-03T01:34:49.797Z,79.71
2022-08-03T01:35:49.674Z,79.75
2022-08-03T01:36:49.759Z,79.64
2022-08-03T01:37:49.640Z,79.87
2022-08-03T01:38:49.728Z,80.08
2022-08-03T01:39:49.621Z,80.22
2022-08-03T01:40:49.632Z,80.11
2022-08-03T01:41:49.591Z,80.01
2022-08-03T01:42:49.699Z,80.02
2022-08-03T01:44:27.547Z,79.89
2022-08-03T01:44:50.549Z,79.83
2022-08-03T01:45:49.534Z,79.79
2022-08-03T01:46:49.572Z,79.73
2022-08-03T01:47:49.519Z,79.87
2022-08-03T01:48:49.592Z,79.97
2022-08-03T01:49:49.563Z,79.95
2022-08-03T01:50:49.502Z,80.04
2022-08-03T01:52:04.335Z,79.80
2022-08-03T01:52:50.471Z,79.82
2022-08-03T01:53:49.544Z,79.80
2022-08-03T01:54:49.428Z,79.81
2022-08-03T01:55:49.475Z,79.60
2022-08-03T01:56:49.382Z,79.72
2022-08-03T01:58:06.087Z,79.79
2022-08-03T01:58:50.382Z,79.90
2022-08-03T01:59:49.365Z,80.03
2022-08-03T02:00:49.388Z,79.91
2022-08-03T02:02:19.566Z,79.96
2022-08-03T02:02:50.462Z,80.18
2022-08-03T02:04:00.667Z,80.21
2022-08-03T02:04:50.306Z,80.21
2022-08-03T02:05:54.114Z,80.31
2022-08-03T02:07:01.928Z,80.37
2022-08-03T02:07:50.242Z,80.43
2022-08-03T02:08:49.334Z,80.17
2022-08-03T02:09:49.213Z,80.23
2022-08-03T02:10:49.295Z,80.43
2022-08-03T02:11:49.191Z,80.74
2022-08-03T02:12:51.156Z,80.59
2022-08-03T02:13:49.161Z,80.56
2022-08-03T02:14:49.203Z,80.55
2022-08-03T02:15:49.166Z,80.79
2022-08-03T02:16:49.183Z,80.66
2022-08-03T02:17:49.103Z,80.65
2022-08-03T02:18:49.203Z,80.71
2022-08-03T02:19:49.096Z,80.79
2022-08-03T02:20:49.103Z,80.59
2022-08-03T02:21:57.272Z,80.59
2022-08-03T02:22:50.043Z,80.76
2022-08-03T02:23:49.145Z,80.94
2022-08-03T02:24:50.942Z,80.83
2022-08-03T02:25:49.043Z,81.02
2022-08-03T02:26:48.995Z,80.89
2022-08-03T02:27:49.125Z,81.14
2022-08-03T02:28:48.968Z,81.16
2022-08-03T02:29:48.967Z,81.33
2022-08-03T02:30:51.833Z,81.13
2022-08-03T02:31:49.924Z,81.36
2022-08-03T02:32:49.045Z,81.26
2022-08-03T02:33:48.925Z,81.42
2022-08-03T02:34:48.904Z,81.38
2022-08-03T02:35:48.874Z,81.30
2022-08-03T02:36:48.917Z,81.25
2022-08-03T02:37:49.757Z,81.42
2022-08-03T02:38:48.987Z,81.41
2022-08-03T02:39:48.815Z,81.26
2022-08-03T02:40:48.943Z,81.15
2022-08-03T02:41:48.795Z,81.12
2022-08-03T02:42:48.859Z,81.12
2022-08-03T02:44:06.201Z,81.14
2022-08-03T02:44:49.769Z,81.37
2022-08-03T02:45:49.807Z,81.44
2022-08-03T02:46:48.725Z,81.44
2022-08-03T02:47:53.386Z,81.55
2022-08-03T02:48:49.709Z,81.89
2022-08-03T02:49:51.246Z,82.00
2022-08-03T02:50:48.709Z,81.86
2022-08-03T02:51:48.716Z,81.83
2022-08-03T02:52:48.653Z,82.04
2022-08-03T02:53:48.727Z,82.23
2022-08-03T02:54:48.629Z,82.36
2022-08-03T02:55:48.699Z,82.33
2022-08-03T02:56:48.596Z,82.38
2022-08-03T02:57:48.659Z,82.42
2022-08-03T02:58:48.566Z,82.33
2022-08-03T02:59:48.667Z,82.29
2022-08-03T03:00:48.564Z,82.25
2022-08-03T03:01:48.645Z,82.53
2022-08-03T03:02:48.518Z,82.70
2022-08-03T03:03:48.596Z,82.72
2022-08-03T03:04:54.993Z,82.89
2022-08-03T03:05:55.823Z,83.07
2022-08-03T03:06:49.489Z,82.99
2022-08-03T03:07:52.887Z,82.67
2022-08-03T03:08:48.439Z,82.48
2022-08-03T03:09:48.539Z,82.54
2022-08-03T03:10:48.408Z,82.27
2022-08-03T03:11:49.398Z,82.60
2022-08-03T03:12:48.538Z,82.54
2022-08-03T03:13:48.367Z,82.10
2022-08-03T03:14:48.378Z,82.15
2022-08-03T03:15:48.337Z,82.27
2022-08-03T03:16:50.669Z,82.42
2022-08-03T03:17:48.308Z,82.81
2022-08-03T03:18:48.350Z,82.64
2022-08-03T03:19:48.295Z,82.32
2022-08-03T03:20:49.148Z,82.00
2022-08-03T03:21:48.469Z,81.92
2022-08-03T03:22:48.329Z,81.87
2022-08-03T03:23:48.238Z,81.83
2022-08-03T03:24:48.309Z,81.92
2022-08-03T03:25:48.219Z,81.99
2022-08-03T03:26:48.258Z,82.21
2022-08-03T03:27:49.574Z,82.58
2022-08-03T03:28:48.272Z,82.81
2022-08-03T03:29:48.160Z,83.02
2022-08-03T03:30:52.744Z,83.02
2022-08-03T03:31:49.150Z,82.95
2022-08-03T03:32:48.198Z,82.74
2022-08-03T03:33:48.112Z,82.78
2022-08-03T03:34:48.210Z,82.54
2022-08-03T03:35:48.091Z,82.57
2022-08-03T03:36:48.179Z,82.51
2022-08-03T03:37:48.057Z,82.80
2022-08-03T03:38:48.137Z,82.82
2022-08-03T03:39:48.029Z,82.72
2022-08-03T03:40:48.054Z,82.74
2022-08-03T03:41:47.999Z,82.61
2022-08-03T03:42:48.119Z,82.65
2022-08-03T03:43:47.980Z,82.68
2022-08-03T03:44:49.014Z,82.78
2022-08-03T03:45:47.962Z,82.86
2022-08-03T03:46:48.020Z,82.85
2022-08-03T03:47:47.921Z,82.72
2022-08-03T03:48:48.012Z,82.67
2022-08-03T03:49:47.903Z,82.55
2022-08-03T03:50:47.921Z,82.63
2022-08-03T03:51:47.911Z,82.65
2022-08-03T03:52:48.960Z,82.97
2022-08-03T03:53:47.851Z,83.05
2022-08-03T03:54:47.901Z,82.98
2022-08-03T03:55:59.178Z,82.65
2022-08-03T03:56:48.801Z,82.64
2022-08-03T03:57:47.871Z,82.83
2022-08-03T03:58:47.775Z,82.81
2022-08-03T03:59:47.881Z,82.96
2022-08-03T04:00:47.812Z,83.05
2022-08-03T04:01:47.790Z,82.94
2022-08-03T04:02:48.730Z,83.09
2022-08-03T04:03:47.811Z,82.89
2022-08-03T04:04:47.706Z,82.86
2022-08-03T04:05:47.751Z,82.94
2022-08-03T04:06:47.692Z,82.85
2022-08-03T04:07:47.732Z,82.88
2022-08-03T04:08:47.651Z,82.65
2022-08-03T04:09:47.751Z,82.64
2022-08-03T04:10:47.621Z,82.65
2022-08-03T04:11:47.678Z,82.75
2022-08-03T04:12:50.255Z,82.88
2022-08-03T04:13:47.679Z,82.77
2022-08-03T04:14:47.580Z,82.88
2022-08-03T04:15:47.583Z,83.03
2022-08-03T04:16:47.542Z,83.08
2022-08-03T04:17:47.602Z,83.02
2022-08-03T04:18:47.539Z,82.95
2022-08-03T04:19:47.625Z,82.87
2022-08-03T04:20:47.710Z,82.95
2022-08-03T04:21:47.530Z,82.92
2022-08-03T04:22:47.465Z,82.97
2022-08-03T04:23:47.543Z,82.90
2022-08-03T04:24:47.457Z,82.93
2022-08-03T04:25:47.455Z,83.07
2022-08-03T04:26:50.943Z,82.96
2022-08-03T04:28:08.164Z,83.15
2022-08-03T04:28:48.383Z,83.00
2022-08-03T04:29:48.529Z,82.91
2022-08-03T04:30:47.443Z,83.12
2022-08-03T04:31:47.363Z,83.04
2022-08-03T04:32:47.416Z,82.97
2022-08-03T04:33:47.335Z,83.09
2022-08-03T04:34:48.341Z,83.20
2022-08-03T04:36:01.887Z,83.16
2022-08-03T04:36:48.300Z,83.04
2022-08-03T04:37:47.335Z,82.94
2022-08-03T04:38:47.274Z,82.88
2022-08-03T04:39:47.354Z,82.94
2022-08-03T04:40:47.265Z,83.08
2022-08-03T04:42:08.385Z,83.08
2022-08-03T04:42:48.205Z,82.91
2022-08-03T04:43:47.327Z,82.74
2022-08-03T04:44:47.205Z,82.54
2022-08-03T04:45:47.218Z,82.65
2022-08-03T04:46:52.729Z,82.79
2022-08-03T04:47:48.155Z,82.71
2022-08-03T04:48:47.224Z,82.83
2022-08-03T04:49:47.108Z,83.07
2022-08-03T04:50:47.124Z,83.08
2022-08-03T04:51:47.079Z,82.84
2022-08-03T04:52:47.191Z,82.44
2022-08-03T04:53:47.067Z,82.45
2022-08-03T04:54:50.436Z,82.66
2022-08-03T04:55:47.026Z,82.62
2022-08-03T04:56:47.070Z,82.63
2022-08-03T04:57:46.998Z,82.71
2022-08-03T04:58:47.077Z,82.75
2022-08-03T04:59:46.997Z,82.84
2022-08-03T05:00:46.997Z,82.85
2022-08-03T05:01:47.031Z,82.92
2022-08-03T05:02:47.064Z,83.07
2022-08-03T05:03:46.918Z,83.13
2022-08-03T05:04:47.017Z,83.14
2022-08-03T05:05:50.343Z,83.02
2022-08-03T05:06:48.409Z,82.89
2022-08-03T05:07:47.867Z,82.70
2022-08-03T05:08:48.874Z,82.93
2022-08-03T05:09:50.528Z,82.82
2022-08-03T05:10:47.850Z,83.11
2022-08-03T05:11:46.868Z,83.22
2022-08-03T05:12:46.860Z,83.13
2022-08-03T05:13:46.878Z,83.13
2022-08-03T05:14:46.784Z,83.15
2022-08-03T05:15:46.813Z,83.00
2022-08-03T05:16:46.777Z,82.83
2022-08-03T05:17:46.810Z,82.76
2022-08-03T05:18:46.719Z,82.62
2022-08-03T05:19:46.838Z,82.73
2022-08-03T05:20:46.698Z,82.54
2022-08-03T05:21:52.733Z,82.57
2022-08-03T05:22:46.698Z,82.62
2022-08-03T05:23:46.748Z,82.29
2022-08-03T05:24:46.655Z,82.76
2022-08-03T05:25:49.673Z,82.90
2022-08-03T05:26:46.623Z,82.81
2022-08-03T05:27:46.679Z,82.77
2022-08-03T05:28:50.960Z,82.67
2022-08-03T05:29:46.579Z,82.64
2022-08-03T05:30:46.601Z,82.52
2022-08-03T05:31:46.560Z,82.58
2022-08-03T05:32:46.613Z,82.73
2022-08-03T05:33:46.534Z,81.38
2022-08-03T05:34:46.579Z,82.22
2022-08-03T05:36:00.685Z,80.20
2022-08-03T05:36:47.489Z,79.73
2022-08-03T05:37:54.552Z,81.00
2022-08-03T05:38:47.471Z,81.43
2022-08-03T05:39:46.560Z,81.18
2022-08-03T05:40:56.665Z,78.27
2022-08-03T05:41:47.419Z,77.42
2022-08-03T05:42:46.479Z,78.01
2022-08-03T05:43:46.392Z,76.72
2022-08-03T05:44:46.489Z,76.02
2022-08-03T05:45:46.361Z,75.97
2022-08-03T05:46:47.390Z,76.66
2022-08-03T05:47:46.411Z,76.27
2022-08-03T05:48:46.333Z,77.30
2022-08-03T05:49:46.425Z,76.21
2022-08-03T05:50:46.303Z,75.74
2022-08-03T05:51:46.339Z,75.87
2022-08-03T05:52:47.344Z,77.34
2022-08-03T05:53:46.364Z,78.00
2022-08-03T05:54:55.800Z,78.46
2022-08-03T05:55:49.341Z,79.03
2022-08-03T05:56:47.268Z,77.65
2022-08-03T05:57:49.282Z,75.74
2022-08-03T05:58:46.288Z,77.41
2022-08-03T05:59:57.734Z,78.51
2022-08-03T06:00:47.172Z,78.62
2022-08-03T06:01:46.231Z,79.06
2022-08-03T06:02:46.143Z,79.36
2022-08-03T06:03:46.255Z,79.65
2022-08-03T06:04:46.134Z,79.93
2022-08-03T06:05:55.490Z,79.53
2022-08-03T06:06:47.090Z,77.56
2022-08-03T06:07:46.153Z,76.60
2022-08-03T06:08:46.074Z,75.33
2022-08-03T06:10:34.220Z,74.86
2022-08-03T06:10:47.055Z,76.87
2022-08-03T06:11:46.061Z,74.49
2022-08-03T06:12:46.086Z,74.43
2022-08-03T06:13:46.000Z,74.22
2022-08-03T06:14:46.105Z,73.20
2022-08-03T06:15:45.983Z,74.14
2022-08-03T06:16:46.288Z,74.34
2022-08-03T06:17:45.960Z,75.29
2022-08-03T06:18:46.034Z,75.51
2022-08-03T06:19:47.125Z,76.20
2022-08-03T06:20:47.171Z,76.28
2022-08-03T06:21:45.895Z,75.50
2022-08-03T06:22:50.965Z,76.80
2022-08-03T06:23:52.595Z,76.55
2022-08-03T06:24:53.278Z,75.27
2022-08-03T06:25:47.516Z,75.20
2022-08-03T06:26:45.891Z,75.14
2022-08-03T06:27:45.821Z,75.80
2022-08-03T06:28:52.893Z,75.94
2022-08-03T06:29:46.795Z,75.29
2022-08-03T06:30:45.816Z,74.75
2022-08-03T06:31:45.766Z,74.95
2022-08-03T06:32:51.783Z,75.06
2022-08-03T06:34:22.907Z,75.08
2022-08-03T06:34:46.731Z,75.59
2022-08-03T06:35:45.712Z,75.96
2022-08-03T06:36:46.780Z,76.74
2022-08-03T06:37:45.688Z,77.70
2022-08-03T06:38:45.716Z,78.23
2022-08-03T06:39:48.787Z,78.72
2022-08-03T06:40:45.674Z,75.69
2022-08-03T06:41:45.700Z,74.29
2022-08-03T06:42:45.694Z,73.29
2022-08-03T06:44:02.634Z,71.36
2022-08-03T06:44:46.627Z,71.17
2022-08-03T06:45:45.615Z,72.91
2022-08-03T06:46:45.588Z,75.29
2022-08-03T06:47:45.631Z,75.64
2022-08-03T06:48:45.549Z,75.06
2022-08-03T06:50:12.680Z,73.14
2022-08-03T06:50:46.630Z,72.63
2022-08-03T06:52:03.742Z,71.65
2022-08-03T06:52:46.628Z,73.46
2022-08-03T06:53:45.581Z,72.09
2022-08-03T06:54:45.471Z,69.77
2022-08-03T06:55:45.481Z,69.75
2022-08-03T06:56:45.466Z,70.65
2022-08-03T06:57:45.532Z,69.71
2022-08-03T06:58:45.415Z,71.04
2022-08-03T07:00:10.994Z,72.28
2022-08-03T07:00:46.449Z,72.71
2022-08-03T07:01:45.481Z,72.47
2022-08-03T07:02:45.421Z,68.37
2022-08-03T07:03:52.099Z,69.08
2022-08-03T07:04:46.332Z,68.17
2022-08-03T07:05:45.343Z,68.16
2022-08-03T07:06:45.320Z,68.01
2022-08-03T07:07:45.411Z,68.34
2022-08-03T07:08:45.278Z,68.00
2022-08-03T07:09:56.742Z,67.41
2022-08-03T07:10:46.260Z,67.68
2022-08-03T07:11:45.403Z,68.07
2022-08-03T07:12:55.557Z,67.81
2022-08-03T07:13:46.224Z,69.46
2022-08-03T07:14:45.314Z,70.13
2022-08-03T07:15:55.684Z,70.48
2022-08-03T07:16:46.174Z,67.53
2022-08-03T07:17:45.243Z,67.20
2022-08-03T07:18:45.142Z,66.94
2022-08-03T07:19:45.197Z,67.60
2022-08-03T07:20:45.115Z,67.31
2022-08-03T07:21:45.156Z,67.40
2022-08-03T07:22:45.088Z,66.40
2022-08-03T07:23:45.166Z,66.09
2022-08-03T07:24:45.083Z,66.25
2022-08-03T07:25:45.082Z,66.62
2022-08-03T07:26:45.035Z,66.26
2022-08-03T07:27:48.852Z,65.32
2022-08-03T07:28:46.007Z,66.16
2022-08-03T07:29:45.115Z,64.90
2022-08-03T07:30:45.003Z,65.19
2022-08-03T07:31:45.026Z,64.88
2022-08-03T07:32:49.738Z,67.10
2022-08-03T07:33:45.945Z,65.31
2022-08-03T07:34:44.943Z,65.07
2022-08-03T07:35:44.915Z,64.93
2022-08-03T07:36:46.046Z,64.36
2022-08-03T07:37:46.161Z,63.84
2022-08-03T07:38:52.047Z,63.90
2022-08-03T07:39:45.042Z,63.51
2022-08-03T07:40:46.512Z,65.40
2022-08-03T07:41:44.855Z,63.94
2022-08-03T07:42:44.907Z,64.60
2022-08-03T07:43:44.808Z,66.08
2022-08-03T07:44:46.021Z,65.73
2022-08-03T07:45:44.784Z,64.48
2022-08-03T07:46:45.847Z,64.85
2022-08-03T07:47:53.619Z,64.96
2022-08-03T07:48:45.748Z,64.79
2022-08-03T07:49:44.824Z,66.35
2022-08-03T07:50:44.715Z,63.08
2022-08-03T07:51:44.798Z,63.59
2022-08-03T07:52:44.708Z,65.83
2022-08-03T07:53:47.302Z,65.97
2022-08-03T07:54:44.660Z,63.95
2022-08-03T07:55:45.720Z,62.71
2022-08-03T07:56:44.650Z,62.51
2022-08-03T07:57:44.698Z,62.09
2022-08-03T07:58:44.632Z,60.44
2022-08-03T07:59:49.056Z,61.74
2022-08-03T08:00:45.600Z,61.58
2022-08-03T08:01:46.773Z,62.57
2022-08-03T08:02:44.827Z,62.58
2022-08-03T08:03:53.229Z,64.13
2022-08-03T08:04:45.559Z,62.71
2022-08-03T08:05:44.551Z,63.42
2022-08-03T08:06:44.523Z,59.47
2022-08-03T08:07:44.564Z,56.76
2022-08-03T08:08:45.504Z,56.75
2022-08-03T08:09:44.583Z,57.88
2022-08-03T08:10:58.143Z,58.08
2022-08-03T08:11:45.448Z,57.16
2022-08-03T08:12:44.500Z,58.22
2022-08-03T08:13:44.432Z,57.57
2022-08-03T08:14:44.516Z,56.49
2022-08-03T08:15:44.402Z,57.82
2022-08-03T08:16:44.433Z,57.94
2022-08-03T08:17:44.361Z,57.15
2022-08-03T08:18:44.441Z,56.71
2022-08-03T08:19:51.281Z,57.41
2022-08-03T08:20:45.350Z,57.78
2022-08-03T08:21:53.135Z,58.38
2022-08-03T08:22:45.304Z,56.07
2022-08-03T08:23:48.071Z,55.21
2022-08-03T08:24:45.773Z,55.60
2022-08-03T08:25:44.293Z,55.33
2022-08-03T08:26:44.283Z,55.04
2022-08-03T08:28:22.426Z,56.52
2022-08-03T08:28:45.346Z,58.64
2022-08-03T08:29:47.547Z,57.15
2022-08-03T08:30:45.333Z,58.79
2022-08-03T08:31:44.247Z,59.35
2022-08-03T08:32:44.192Z,57.98
2022-08-03T08:34:45.187Z,58.31
2022-08-03T08:35:44.125Z,58.63
2022-08-03T08:36:44.168Z,57.53
2022-08-03T08:37:50.769Z,57.02
2022-08-03T08:38:45.286Z,57.14
2022-08-03T08:39:44.187Z,56.69
2022-08-03T08:40:44.076Z,56.26
2022-08-03T08:41:46.817Z,57.83
2022-08-03T08:42:57.528Z,57.82
2022-08-03T08:43:45.083Z,57.76
2022-08-03T08:44:44.125Z,58.91
2022-08-03T08:45:44.446Z,57.69
2022-08-03T08:46:44.041Z,58.64
2022-08-03T08:47:51.174Z,56.62
2022-08-03T08:48:44.958Z,53.50
2022-08-03T08:49:53.550Z,53.20
2022-08-03T08:50:45.003Z,53.48
2022-08-03T08:51:54.734Z,55.91
2022-08-03T08:52:44.899Z,56.08
2022-08-03T08:53:45.018Z,55.65
2022-08-03T08:54:43.881Z,57.64
2022-08-03T08:55:58.178Z,55.81
2022-08-03T08:56:44.889Z,55.10
2022-08-03T08:57:43.911Z,56.19
2022-08-03T08:58:43.841Z,56.24
2022-08-03T08:59:48.017Z,55.83
2022-08-03T09:00:43.833Z,54.03
2022-08-03T09:01:44.926Z,55.48
2022-08-03T09:02:43.772Z,55.47
2022-08-03T09:03:43.868Z,55.07
2022-08-03T09:04:43.742Z,55.44
2022-08-03T09:05:55.856Z,55.86
2022-08-03T09:06:58.568Z,55.22
2022-08-03T09:07:44.714Z,52.93
2022-08-03T09:08:43.822Z,53.92
2022-08-03T09:10:08.396Z,57.29
2022-08-03T09:10:44.663Z,57.15
2022-08-03T09:11:51.467Z,57.51
2022-08-03T09:12:44.818Z,57.34
2022-08-03T09:13:44.843Z,54.86
2022-08-03T09:15:00.850Z,53.86
2022-08-03T09:16:01.297Z,54.96
2022-08-03T09:16:44.643Z,53.93
2022-08-03T09:17:46.546Z,52.90
2022-08-03T09:18:44.968Z,52.61
2022-08-03T09:19:43.567Z,52.55
2022-08-03T09:20:44.865Z,53.01
2022-08-03T09:21:44.127Z,52.58
2022-08-03T09:22:43.632Z,53.34
2022-08-03T09:23:59.703Z,54.53
2022-08-03T09:24:44.481Z,54.39
2022-08-03T09:25:43.493Z,54.73
2022-08-03T09:26:43.476Z,54.56
2022-08-03T09:27:43.740Z,53.34
2022-08-03T09:29:00.086Z,53.79
2022-08-03T09:29:44.426Z,54.95
2022-08-03T09:30:43.440Z,55.45
2022-08-03T09:31:44.197Z,52.00
2022-08-03T09:32:43.450Z,53.86
2022-08-03T09:33:43.372Z,55.13
2022-08-03T09:34:43.415Z,55.96
2022-08-03T09:35:58.823Z,54.38
2022-08-03T09:36:44.333Z,52.45
2022-08-03T09:38:12.352Z,50.76
2022-08-03T09:38:44.416Z,49.66
2022-08-03T09:39:43.302Z,51.05
2022-08-03T09:40:43.296Z,49.01
2022-08-03T09:41:43.273Z,49.51
2022-08-03T09:42:43.326Z,49.42
2022-08-03T09:43:43.245Z,48.29
2022-08-03T09:44:43.267Z,47.45
2022-08-03T09:45:43.205Z,49.84
2022-08-03T09:46:43.235Z,47.79
2022-08-03T09:47:44.740Z,47.92
2022-08-03T09:48:43.249Z,50.00
2022-08-03T09:49:43.188Z,51.85
2022-08-03T09:50:43.228Z,53.11
2022-08-03T09:52:31.317Z,52.97
2022-08-03T09:52:52.396Z,51.67
2022-08-03T09:53:59.167Z,52.96
2022-08-03T09:54:44.116Z,52.58
2022-08-03T09:56:33.754Z,52.67
2022-08-03T09:56:44.094Z,53.76
2022-08-03T09:57:43.058Z,50.38
2022-08-03T09:58:43.119Z,48.49
2022-08-03T09:59:43.029Z,47.64
2022-08-03T10:00:44.299Z,47.72
2022-08-03T10:01:43.744Z,49.75
2022-08-03T10:02:45.454Z,50.24
2022-08-03T10:04:02.831Z,50.83
2022-08-03T10:04:46.712Z,49.81
2022-08-03T10:05:45.443Z,50.69
2022-08-03T10:06:45.323Z,51.03
2022-08-03T10:07:47.495Z,50.88
2022-08-03T10:08:44.848Z,49.97
2022-08-03T10:09:45.259Z,50.73
2022-08-03T10:10:54.036Z,49.95
2022-08-03T10:11:44.532Z,50.94
2022-08-03T10:13:07.077Z,51.92
2022-08-03T10:13:43.972Z,48.72
2022-08-03T10:14:43.800Z,51.40
2022-08-03T10:16:23.902Z,51.25
2022-08-03T10:16:44.646Z,50.40
2022-08-03T10:17:47.236Z,50.34
2022-08-03T10:18:44.647Z,50.33
2022-08-03T10:19:44.268Z,47.04
2022-08-03T10:20:43.986Z,47.56
2022-08-03T10:21:43.834Z,48.38
2022-08-03T10:22:43.098Z,48.40
2022-08-03T10:23:42.805Z,50.15
2022-08-03T10:24:42.707Z,51.23
2022-08-03T10:25:42.764Z,53.03
2022-08-03T10:26:49.729Z,53.78
2022-08-03T10:27:43.674Z,52.09
2022-08-03T10:28:45.223Z,48.09
2022-08-03T10:29:42.635Z,46.60
2022-08-03T10:30:42.646Z,47.76
2022-08-03T10:31:54.760Z,48.12
2022-08-03T10:32:43.603Z,45.10
2022-08-03T10:33:51.532Z,45.85
2022-08-03T10:34:44.649Z,47.43
2022-08-03T10:35:42.578Z,49.63
2022-08-03T10:36:42.578Z,50.77
2022-08-03T10:37:42.601Z,48.63
2022-08-03T10:38:43.516Z,48.51
2022-08-03T10:39:42.607Z,48.05
2022-08-03T10:40:51.816Z,47.48
2022-08-03T10:41:43.518Z,46.59
2022-08-03T10:42:42.608Z,48.56
2022-08-03T10:43:42.456Z,47.57
2022-08-03T10:44:42.552Z,48.04
2022-08-03T10:45:42.429Z,46.74
2022-08-03T10:46:45.157Z,49.12
2022-08-03T10:47:42.419Z,46.25
2022-08-03T10:48:42.470Z,47.48
2022-08-03T10:49:42.426Z,44.08
2022-08-03T10:50:42.479Z,42.63
2022-08-03T10:51:42.339Z,42.93
2022-08-03T10:52:44.363Z,44.78
2022-08-03T10:53:47.094Z,44.53
2022-08-03T10:54:43.329Z,45.17
2022-08-03T10:55:42.429Z,46.12
2022-08-03T10:56:50.351Z,41.32
2022-08-03T10:57:43.301Z,41.80
2022-08-03T10:58:57.643Z,40.45
2022-08-03T10:59:43.272Z,44.41
2022-08-03T11:00:43.325Z,43.51
2022-08-03T11:01:59.851Z,42.57
2022-08-03T11:02:43.211Z,45.17
2022-08-03T11:03:42.321Z,43.40
2022-08-03T11:04:43.198Z,44.35
2022-08-03T11:05:43.201Z,45.88
2022-08-03T11:06:42.152Z,46.57
2022-08-03T11:07:43.222Z,46.48
2022-08-03T11:08:43.201Z,47.08
2022-08-03T11:09:42.139Z,45.18
2022-08-03T11:10:42.235Z,41.09
2022-08-03T11:11:42.090Z,42.89
2022-08-03T11:12:42.135Z,43.12
2022-08-03T11:13:42.090Z,43.25
2022-08-03T11:14:42.215Z,44.16
2022-08-03T11:15:42.561Z,41.92
2022-08-03T11:16:42.794Z,42.27
2022-08-03T11:17:46.902Z,40.93
2022-08-03T11:18:43.007Z,41.01
2022-08-03T11:19:57.445Z,41.67
2022-08-03T11:20:43.003Z,42.73
2022-08-03T11:21:42.013Z,41.90
2022-08-03T11:22:41.936Z,43.40
2022-08-03T11:24:05.523Z,42.64
2022-08-03T11:24:42.940Z,47.19
2022-08-03T11:25:54.848Z,44.55
2022-08-03T11:26:42.916Z,45.39
2022-08-03T11:27:41.937Z,44.43
2022-08-03T11:28:41.868Z,44.77
2022-08-03T11:29:41.948Z,42.41
2022-08-03T11:30:41.849Z,43.47
2022-08-03T11:31:50.563Z,44.30
2022-08-03T11:32:48.129Z,46.12
2022-08-03T11:33:42.801Z,45.01
2022-08-03T11:34:41.878Z,43.82
2022-08-03T11:35:41.779Z,43.39
2022-08-03T11:36:41.790Z,41.72
2022-08-03T11:37:41.779Z,39.76
2022-08-03T11:38:42.730Z,37.79
2022-08-03T11:39:41.729Z,39.54
2022-08-03T11:40:41.823Z,41.33
2022-08-03T11:41:42.778Z,38.29
2022-08-03T11:42:41.790Z,37.85
2022-08-03T11:43:41.669Z,37.84
2022-08-03T11:44:41.743Z,40.29
2022-08-03T11:45:42.659Z,42.83
2022-08-03T11:46:41.661Z,40.06
2022-08-03T11:47:51.069Z,37.86
2022-08-03T11:48:42.751Z,38.14
2022-08-03T11:49:41.754Z,43.28
2022-08-03T11:50:41.654Z,36.90
2022-08-03T11:53:12.935Z,39.65
2022-08-03T11:53:52.847Z,39.64
2022-08-03T11:54:56.955Z,39.57
2022-08-03T11:55:51.076Z,39.16
2022-08-03T11:56:50.872Z,39.53
2022-08-03T11:59:00.850Z,40.60
2022-08-03T11:59:09.396Z,41.89
2022-08-03T11:59:51.738Z,41.93
2022-08-03T12:00:50.797Z,43.31
2022-08-03T12:01:50.706Z,44.29
2022-08-03T12:02:50.873Z,39.96
2022-08-03T12:03:50.669Z,38.10
2022-08-03T12:04:50.757Z,39.19
2022-08-03T12:05:51.767Z,41.45
2022-08-03T12:08:06.357Z,37.30
2022-08-03T12:09:02.935Z,37.30
2022-08-03T12:10:03.275Z,36.99
2022-08-03T12:11:03.427Z,42.41
2022-08-03T12:12:03.958Z,41.54
2022-08-03T12:13:02.846Z,40.12
2022-08-03T12:14:47.991Z,40.19
2022-08-03T12:15:03.863Z,38.00
2022-08-03T12:16:02.813Z,35.20
2022-08-03T12:17:02.878Z,35.08
2022-08-03T12:18:02.952Z,33.81
2022-08-03T12:19:03.816Z,33.26
2022-08-03T12:20:02.768Z,33.57
2022-08-03T12:21:02.858Z,33.87
2022-08-03T12:22:02.728Z,34.58
2022-08-03T12:23:02.809Z,40.12
2022-08-03T12:24:02.709Z,35.81
2022-08-03T12:25:02.732Z,35.46
2022-08-03T12:26:02.697Z,34.35
2022-08-03T12:27:02.803Z,33.93
2022-08-03T12:28:02.659Z,33.49
2022-08-03T12:29:02.762Z,34.12
2022-08-03T12:30:02.619Z,35.08
2022-08-03T12:31:02.662Z,34.26
2022-08-03T12:32:02.604Z,35.40
2022-08-03T12:33:02.629Z,35.82
2022-08-03T12:34:02.583Z,40.19
2022-08-03T12:35:04.309Z,43.40
2022-08-03T12:36:02.555Z,38.11
2022-08-03T12:37:02.619Z,42.14
2022-08-03T12:38:04.345Z,39.29
2022-08-03T12:39:03.002Z,38.84
2022-08-03T12:40:09.763Z,37.53
2022-08-03T12:41:03.541Z,37.03
2022-08-03T12:42:02.544Z,36.13
2022-08-03T12:43:02.464Z,37.24
2022-08-03T12:44:02.513Z,35.42
2022-08-03T12:45:02.423Z,35.17
2022-08-03T12:46:02.464Z,38.92
2022-08-03T12:47:02.407Z,36.41
2022-08-03T12:48:02.475Z,36.63
2022-08-03T12:49:02.408Z,39.76
2022-08-03T12:50:02.455Z,39.16
2022-08-03T12:51:02.355Z,39.52
2022-08-03T12:52:07.202Z,35.63
2022-08-03T12:53:03.328Z,38.33
2022-08-03T12:54:02.427Z,38.71
2022-08-03T12:55:02.306Z,38.26
2022-08-03T12:56:05.826Z,41.43